Hovedside
METAR-TAF:

METAR-TAF

Lufthavner :

Kärdla lufthavn

Kärdla, Estland

breddegrad: 58-59N, lengdegrad: 022-49E, høyde over havet: 5 m

Gjeldene værobservasjon

Denne rapporten ble laget for 1 time og 4 minutter siden, klokken 03:50 UTC
Vind 8 kt fra Sør
Temperatur 10°C
Luftfuktighet 93%
Trykk 1016 hPa
Sikt 10 km eller mer
ingen skyer under 1500 m og ingen bygeskyer

METAR: EEKA 160350Z 17008KT CAVOK 10/09 Q1016

Tid: 07:54 (04:54 UTC)

Varsel

Denne rapporten ble laget for 1 time og 54 minutter siden, klokken 03:00 UTC
Varsel gyldig fra 16. klokken 04 UTC til 16. klokken 10 UTC
Vind 12 kt fra Sør
Sikt 10 km eller mer
ingen skyer under 1500 m og ingen bygeskyer
Sannsynlighet 40% :
Midlertidig
fra 16. klokken 04 UTC til 16. klokken 06 UTC
Sikt: 3000 m
Spredte skyer i en høyde av 500 ft
dis

TAF: EEKA 160300Z 1604/1610 19012KT CAVOK PROB40 TEMPO 1604/1606 3000 BR SCT005

Værobservasjoner og værvarsel for over 4000 flyplasser (METAR- og TAF-rapporter).

Tilgjengelige stasjoner er representert av de røde og gule prikkene på kartet.

Hold musepekeren over prikken for å se navnet på stasjonen.

Klikk så for å se værobservasjoner og -varsler.

For å forandre kartet kan du klikke på den grønne knappen med svart kryss for å zoome inn, på den grønne knappen med strek for å zoome ut, eller på de grønne pilene for å se tilstøtende kart.


METAR-TAF: